Time;durP1;ratioP1;P1;durP2;ratioP2;P2;SDS_P1;SDS_P2;PMS_P1;PMS_P2;Temp;Humidity;BMP_temperature;BMP_pressure;BME280_temperature;BME280_humidity;BME280_pressure;Samples;Min_cycle;Max_cycle;Signal;HPM_P1;HPM_P2
2021/07/16 00:02:13;;;;;;;23.70;11.67;;;17.40;1.00;;;;;;4954156;28;20631;-66
2021/07/16 00:04:39;;;;;;;25.50;12.43;;;17.40;1.00;;;;;;4953981;28;20216;-65
2021/07/16 00:07:06;;;;;;;17.67;10.73;;;17.40;99.90;;;;;;4953892;28;20650;-66
2021/07/16 00:09:32;;;;;;;20.73;11.83;;;17.40;99.90;;;;;;4954168;28;20634;-66
2021/07/16 00:11:59;;;;;;;19.67;11.23;;;17.40;1.00;;;;;;4959884;28;20208;-66
2021/07/16 00:14:26;;;;;;;27.97;11.63;;;17.40;99.90;;;;;;4960315;28;20208;-67
2021/07/16 00:16:54;;;;;;;26.57;11.67;;;17.50;99.90;;;;;;4960267;28;20372;-66
2021/07/16 00:19:21;;;;;;;20.97;11.57;;;17.50;1.00;;;;;;4960144;28;20246;-66
2021/07/16 00:21:47;;;;;;;22.00;11.23;;;17.40;1.00;;;;;;4960148;28;20208;-66
2021/07/16 00:24:14;;;;;;;22.60;11.10;;;17.40;1.00;;;;;;4960065;28;20267;-66
2021/07/16 00:26:41;;;;;;;18.90;10.87;;;17.40;1.00;;;;;;4960177;28;20212;-66
2021/07/16 00:29:07;;;;;;;20.70;10.23;;;17.40;1.00;;;;;;4960286;28;20212;-65
2021/07/16 00:31:35;;;;;;;20.67;11.20;;;17.40;1.00;;;;;;4960213;28;20209;-67
2021/07/16 00:34:04;;;;;;;23.90;11.37;;;17.30;1.00;;;;;;4959949;28;20208;-66
2021/07/16 00:36:30;;;;;;;26.93;11.17;;;17.30;1.00;;;;;;4959854;28;20208;-67
2021/07/16 00:38:57;;;;;;;18.63;10.53;;;17.30;1.00;;;;;;4959803;28;20641;-66
2021/07/16 00:41:24;;;;;;;18.33;10.10;;;17.30;1.00;;;;;;4960386;28;20267;-65
2021/07/16 00:43:50;;;;;;;20.73;11.07;;;17.30;1.00;;;;;;4960031;28;20208;-65
2021/07/16 00:46:17;;;;;;;20.07;10.27;;;17.20;1.00;;;;;;4960166;28;20259;-66
2021/07/16 00:48:44;;;;;;;18.50;10.47;;;17.20;1.00;;;;;;4959879;28;20721;-65
2021/07/16 00:51:13;;;;;;;16.97;9.73;;;17.30;1.00;;;;;;4960005;28;20635;-65
2021/07/16 00:53:40;;;;;;;17.17;10.20;;;17.30;99.90;;;;;;4959593;28;20209;-65
2021/07/16 00:56:07;;;;;;;18.80;9.80;;;17.20;99.90;;;;;;4960059;28;20205;-65
2021/07/16 00:58:34;;;;;;;25.87;10.83;;;17.20;99.90;;;;;;4960010;28;20646;-66
2021/07/16 01:01:03;;;;;;;20.13;10.13;;;17.20;53.60;;;;;;4959696;28;20283;-66
2021/07/16 01:03:29;;;;;;;16.03;9.60;;;17.10;99.90;;;;;;4959756;28;20205;-65
2021/07/16 01:05:56;;;;;;;17.30;9.90;;;17.10;99.90;;;;;;4959038;28;20256;-65
2021/07/16 01:08:24;;;;;;;19.43;10.30;;;17.10;90.20;;;;;;4959704;28;20245;-65
2021/07/16 01:10:51;;;;;;;20.93;10.27;;;17.00;99.90;;;;;;4959893;28;20205;-65
2021/07/16 01:13:17;;;;;;;20.90;10.80;;;17.00;99.90;;;;;;4959949;28;20624;-65
2021/07/16 01:15:44;;;;;;;18.50;9.83;;;17.00;99.90;;;;;;4959658;28;20208;-65
2021/07/16 01:18:11;;;;;;;26.13;10.33;;;17.00;99.90;;;;;;4959602;28;20284;-65
2021/07/16 01:20:38;;;;;;;27.07;10.10;;;17.00;99.90;;;;;;4959507;28;20220;-66
2021/07/16 01:23:19;;;;;;;16.43;9.33;;;17.00;1.00;;;;;;4956304;28;20216;-66
2021/07/16 01:25:46;;;;;;;16.23;8.53;;;17.00;1.00;;;;;;4956561;28;20216;-66
2021/07/16 01:28:12;;;;;;;23.37;9.67;;;17.00;1.00;;;;;;4956484;28;20236;-65
2021/07/16 01:30:39;;;;;;;18.30;9.70;;;17.00;99.90;;;;;;4956616;28;20280;-65
2021/07/16 01:33:06;;;;;;;18.37;9.67;;;16.90;1.00;;;;;;4956291;28;20260;-66
2021/07/16 01:35:33;;;;;;;19.13;9.57;;;16.90;1.00;;;;;;4956651;28;20213;-65
2021/07/16 01:38:01;;;;;;;19.83;9.70;;;16.90;99.90;;;;;;4956458;28;20236;-66
2021/07/16 01:40:35;;;;;;;18.70;9.33;;;17.00;99.90;;;;;;4956448;28;20272;-65
2021/07/16 01:43:02;;;;;;;16.53;9.07;;;16.90;99.90;;;;;;4956352;28;20209;-65
2021/07/16 01:45:31;;;;;;;16.63;9.30;;;16.90;99.90;;;;;;4956149;28;20259;-65
2021/07/16 01:47:59;;;;;;;11.93;8.47;;;16.80;99.90;;;;;;4956008;28;20225;-65
2021/07/16 01:50:27;;;;;;;16.80;8.67;;;16.80;99.90;;;;;;4956426;28;20213;-65
2021/07/16 01:52:55;;;;;;;22.53;9.97;;;16.80;99.90;;;;;;4956093;28;20209;-65
2021/07/16 01:55:23;;;;;;;18.70;9.27;;;16.80;99.90;;;;;;4956070;28;20217;-65
2021/07/16 01:57:53;;;;;;;19.27;9.73;;;16.80;1.00;;;;;;4956207;28;20229;-65
2021/07/16 02:00:23;;;;;;;14.67;9.37;;;16.80;19.00;;;;;;4955985;28;20225;-65
2021/07/16 02:02:50;;;;;;;15.60;8.50;;;16.70;95.70;;;;;;4956134;28;20275;-65
2021/07/16 02:05:17;;;;;;;16.43;8.63;;;16.70;99.90;;;;;;4955867;28;20216;-66
2021/07/16 02:07:44;;;;;;;15.10;9.73;;;16.70;99.90;;;;;;4955839;28;20653;-65
2021/07/16 02:10:12;;;;;;;17.33;9.30;;;16.70;99.90;;;;;;4955820;28;20209;-65
2021/07/16 02:12:38;;;;;;;13.80;8.47;;;16.70;99.90;;;;;;4956029;28;20213;-66
2021/07/16 02:15:14;;;;;;;24.20;9.33;;;16.70;99.90;;;;;;4955930;28;20256;-66
2021/07/16 02:17:40;;;;;;;18.37;8.97;;;16.80;99.90;;;;;;4955870;28;20669;-65
2021/07/16 02:20:19;;;;;;;16.67;8.00;;;16.80;72.00;;;;;;4956283;28;20644;-66
2021/07/16 02:22:45;;;;;;;23.43;9.43;;;16.80;99.90;;;;;;4956010;28;20221;-66
2021/07/16 02:25:13;;;;;;;26.27;9.00;;;16.70;99.90;;;;;;4955865;28;20265;-65
2021/07/16 02:27:40;;;;;;;17.40;9.50;;;16.70;99.90;;;;;;4955570;28;20721;-65
2021/07/16 02:30:08;;;;;;;15.93;8.97;;;16.70;99.90;;;;;;4955689;28;20268;-67
2021/07/16 02:32:36;;;;;;;12.37;8.10;;;16.80;1.00;;;;;;4955508;28;20666;-66
2021/07/16 02:35:03;;;;;;;18.10;8.63;;;16.70;99.90;;;;;;4955319;28;20271;-65
2021/07/16 02:37:29;;;;;;;16.80;8.27;;;16.70;99.90;;;;;;4955293;28;20228;-66
2021/07/16 02:39:56;;;;;;;15.37;9.23;;;16.80;99.90;;;;;;4955181;28;20237;-65
2021/07/16 02:42:23;;;;;;;19.33;9.03;;;16.80;99.90;;;;;;4955433;28;20209;-66
2021/07/16 02:44:49;;;;;;;22.70;10.87;;;16.80;99.90;;;;;;4955224;28;20205;-66
2021/07/16 02:47:16;;;;;;;21.80;10.33;;;16.80;99.90;;;;;;4955138;28;20240;-66
2021/07/16 02:49:44;;;;;;;23.37;11.57;;;16.60;99.90;;;;;;4955171;28;20205;-66
2021/07/16 02:52:10;;;;;;;22.43;11.67;;;16.60;99.90;;;;;;4955030;28;20670;-66
2021/07/16 02:54:37;;;;;;;22.20;11.43;;;16.60;99.90;;;;;;4954781;28;20243;-66
2021/07/16 02:57:04;;;;;;;22.50;11.70;;;16.50;99.90;;;;;;4955054;28;20232;-66
2021/07/16 02:59:31;;;;;;;25.53;13.67;;;16.40;1.00;;;;;;4954927;28;20208;-65
2021/07/16 03:01:59;;;;;;;24.43;13.07;;;16.40;99.90;;;;;;4955022;28;20213;-65
2021/07/16 03:04:26;;;;;;;25.60;13.50;;;16.40;1.00;;;;;;4954863;28;20205;-66
2021/07/16 03:06:54;;;;;;;23.43;12.87;;;16.40;99.90;;;;;;4954556;28;20229;-65
2021/07/16 03:09:21;;;;;;;25.43;13.90;;;16.30;99.90;;;;;;4954729;28;20237;-65
2021/07/16 03:11:47;;;;;;;26.23;14.73;;;16.30;1.00;;;;;;4954806;28;20213;-65
2021/07/16 03:14:14;;;;;;;29.53;14.27;;;16.30;99.90;;;;;;4954615;28;20220;-65
2021/07/16 03:16:41;;;;;;;26.67;14.97;;;16.30;99.90;;;;;;4954688;28;20264;-65
2021/07/16 03:19:07;;;;;;;26.30;15.43;;;16.30;99.90;;;;;;4954607;28;20213;-65
2021/07/16 03:21:34;;;;;;;27.77;14.63;;;16.20;12.90;;;;;;4954365;28;20232;-65
2021/07/16 03:24:03;;;;;;;32.53;15.10;;;16.20;99.90;;;;;;4954619;28;20212;-65
2021/07/16 03:26:30;;;;;;;26.87;14.57;;;16.30;1.00;;;;;;4954632;28;20666;-65
2021/07/16 03:28:57;;;;;;;25.67;15.03;;;16.30;1.00;;;;;;4954570;28;20217;-66
2021/07/16 03:31:23;;;;;;;31.03;15.00;;;16.20;99.90;;;;;;4954663;28;20208;-65
2021/07/16 03:33:50;;;;;;;28.30;14.60;;;16.30;99.90;;;;;;4954411;28;20256;-65
2021/07/16 03:36:16;;;;;;;27.63;14.63;;;16.30;25.30;;;;;;4954273;28;20221;-64
2021/07/16 03:38:44;;;;;;;31.80;14.60;;;16.30;1.00;;;;;;4954459;28;20233;-65
2021/07/16 03:41:12;;;;;;;27.53;14.03;;;16.40;99.90;;;;;;4954430;28;20262;-65
2021/07/16 03:43:38;;;;;;;24.30;13.43;;;16.40;99.90;;;;;;4954156;28;20267;-66
2021/07/16 03:46:05;;;;;;;25.70;13.83;;;16.40;1.00;;;;;;4953790;28;20263;-66
2021/07/16 03:48:32;;;;;;;26.80;13.97;;;16.30;10.00;;;;;;4953892;28;20276;-66
2021/07/16 03:50:59;;;;;;;33.00;15.20;;;16.20;99.90;;;;;;4954349;28;20300;-64
2021/07/16 03:53:25;;;;;;;37.70;15.47;;;16.20;99.90;;;;;;4954078;28;20212;-67
2021/07/16 03:55:52;;;;;;;23.23;13.83;;;16.20;1.00;;;;;;4954243;28;20242;-66
2021/07/16 03:58:20;;;;;;;27.67;13.30;;;16.30;1.00;;;;;;4953950;28;20256;-65
2021/07/16 04:00:47;;;;;;;22.43;12.70;;;16.30;68.70;;;;;;4953968;28;20221;-66
2021/07/16 04:03:15;;;;;;;30.67;12.60;;;16.30;1.00;;;;;;4953624;28;20681;-66
2021/07/16 04:05:42;;;;;;;23.07;11.93;;;16.30;99.90;;;;;;4953947;28;20303;-66
2021/07/16 04:08:15;;;;;;;25.97;12.47;;;16.30;1.00;;;;;;4954059;28;20229;-66
2021/07/16 04:10:43;;;;;;;23.00;13.13;;;16.30;99.90;;;;;;4954128;28;20578;-66
2021/07/16 04:13:11;;;;;;;25.50;11.80;;;16.30;1.00;;;;;;4953993;28;20213;-65
2021/07/16 04:15:40;;;;;;;18.87;12.37;;;16.30;58.20;;;;;;4953713;28;20209;-65
2021/07/16 04:18:08;;;;;;;25.87;13.60;;;16.20;1.00;;;;;;4946527;28;20730;-66
2021/07/16 04:20:39;;;;;;;22.83;13.13;;;16.20;1.00;;;;;;4953159;28;20224;-65
2021/07/16 04:23:07;;;;;;;23.97;12.97;;;16.20;73.80;;;;;;4953780;28;20725;-66
2021/07/16 04:25:34;;;;;;;21.10;12.03;;;16.20;1.00;;;;;;4953576;28;20212;-66
2021/07/16 04:28:03;;;;;;;21.50;11.60;;;16.20;1.00;;;;;;4953597;28;20722;-66
2021/07/16 04:30:32;;;;;;;21.23;11.67;;;16.30;99.90;;;;;;4953587;28;20201;-66
2021/07/16 04:33:02;;;;;;;17.93;11.33;;;16.30;99.90;;;;;;4953845;28;20213;-66
2021/07/16 04:35:30;;;;;;;19.13;10.77;;;16.30;99.90;;;;;;4953833;28;20213;-65
2021/07/16 04:37:57;;;;;;;16.80;10.20;;;16.30;99.90;;;;;;4953465;29;20236;-66
2021/07/16 04:40:26;;;;;;;16.33;10.43;;;16.30;99.90;;;;;;4953556;28;20287;-65
2021/07/16 04:42:55;;;;;;;16.07;9.40;;;16.20;1.00;;;;;;4953357;29;20220;-65
2021/07/16 04:45:22;;;;;;;16.47;10.33;;;16.20;1.00;;;;;;4953413;28;20260;-66
2021/07/16 04:47:49;;;;;;;18.80;10.40;;;16.20;1.00;;;;;;4953443;29;20229;-66
2021/07/16 04:50:19;;;;;;;17.07;10.40;;;16.20;85.40;;;;;;4953663;28;20213;-66
2021/07/16 04:52:46;;;;;;;15.37;9.27;;;16.20;1.00;;;;;;4953383;29;20572;-66
2021/07/16 04:55:14;;;;;;;18.20;10.67;;;16.20;99.90;;;;;;4953122;28;20725;-65
2021/07/16 04:57:41;;;;;;;15.30;8.97;;;16.30;99.90;;;;;;4954966;28;20294;-66
2021/07/16 05:00:10;;;;;;;18.00;10.47;;;16.30;99.90;;;;;;4957114;28;20209;-65
2021/07/16 05:02:37;;;;;;;15.17;9.50;;;16.30;99.90;;;;;;4957148;28;20268;-66
2021/07/16 05:05:04;;;;;;;13.63;8.60;;;16.30;48.90;;;;;;4956947;28;20209;-66
2021/07/16 05:07:33;;;;;;;14.63;9.00;;;16.20;99.90;;;;;;4956865;29;20229;-66
2021/07/16 05:09:59;;;;;;;13.13;8.93;;;16.20;99.90;;;;;;4956891;28;20264;-65
2021/07/16 05:12:26;;;;;;;15.73;9.93;;;16.30;1.00;;;;;;4957164;29;20217;-65
2021/07/16 05:14:54;;;;;;;14.27;9.07;;;16.30;1.00;;;;;;4956868;28;20209;-65
2021/07/16 05:17:20;;;;;;;17.87;9.73;;;16.30;1.00;;;;;;4956848;28;20264;-65
2021/07/16 05:19:47;;;;;;;13.23;9.87;;;16.40;1.00;;;;;;4956653;29;20345;-65
2021/07/16 05:22:14;;;;;;;17.77;10.00;;;16.40;99.90;;;;;;4957953;28;20710;-64
2021/07/16 05:24:42;;;;;;;14.83;9.57;;;16.40;99.90;;;;;;4954386;28;20209;-64
2021/07/16 05:27:08;;;;;;;16.00;9.47;;;16.50;1.00;;;;;;4956192;28;20280;-64
2021/07/16 05:29:35;;;;;;;16.83;9.13;;;16.60;99.90;;;;;;4956449;28;20571;-63
2021/07/16 05:32:02;;;;;;;15.13;9.73;;;16.60;99.90;;;;;;4956474;28;20201;-63
2021/07/16 05:34:28;;;;;;;15.50;9.23;;;16.60;99.90;;;;;;4955569;28;20260;-63
2021/07/16 05:36:55;;;;;;;13.47;9.33;;;16.50;99.90;;;;;;4955769;28;20233;-63
2021/07/16 05:39:22;;;;;;;12.87;9.13;;;16.60;99.90;;;;;;4956408;28;20661;-64
2021/07/16 05:41:50;;;;;;;18.43;9.13;;;16.60;99.90;;;;;;4955980;28;20232;-64
2021/07/16 05:44:16;;;;;;;14.23;8.43;;;16.60;99.90;;;;;;4955557;28;20753;-66
2021/07/16 05:46:43;;;;;;;15.93;8.50;;;16.70;26.20;;;;;;4955836;28;20681;-66
2021/07/16 05:49:09;;;;;;;15.37;8.37;;;16.70;1.00;;;;;;4956243;29;20205;-66
2021/07/16 05:51:36;;;;;;;14.40;8.60;;;16.80;99.90;;;;;;4955841;28;20209;-66
2021/07/16 05:54:03;;;;;;;15.03;8.50;;;16.90;99.90;;;;;;4955786;28;20283;-66
2021/07/16 05:56:30;;;;;;;15.93;8.70;;;16.80;99.90;;;;;;4956386;28;20706;-67
2021/07/16 05:58:58;;;;;;;16.93;8.50;;;16.80;1.00;;;;;;4956028;28;20217;-67
2021/07/16 06:01:24;;;;;;;15.77;8.60;;;16.70;1.00;;;;;;4955854;28;20654;-67
2021/07/16 06:03:51;;;;;;;14.37;9.17;;;16.70;1.00;;;;;;4955060;28;20252;-65
2021/07/16 06:06:18;;;;;;;13.93;8.93;;;16.70;71.20;;;;;;4955507;28;20217;-65
2021/07/16 06:08:44;;;;;;;19.50;12.33;;;16.80;99.90;;;;;;4955653;28;20228;-65
2021/07/16 06:11:11;;;;;;;15.50;9.20;;;16.70;23.90;;;;;;4955749;28;20213;-66
2021/07/16 06:13:38;;;;;;;19.10;9.23;;;16.70;29.50;;;;;;4956709;28;20267;-65
2021/07/16 06:16:06;;;;;;;16.47;9.00;;;16.80;99.90;;;;;;4957658;28;20633;-66
2021/07/16 06:18:32;;;;;;;18.17;9.00;;;16.90;99.90;;;;;;4957645;28;20235;-66
2021/07/16 06:20:59;;;;;;;19.47;10.63;;;16.90;99.90;;;;;;4955635;28;20304;-66
2021/07/16 06:23:26;;;;;;;22.13;9.87;;;16.90;99.90;;;;;;4957253;28;20209;-66
2021/07/16 06:25:52;;;;;;;21.70;10.13;;;16.90;1.00;;;;;;4957616;28;20231;-66
2021/07/16 06:28:19;;;;;;;24.07;11.20;;;16.90;1.00;;;;;;4958273;28;20232;-66
2021/07/16 06:30:45;;;;;;;22.10;11.30;;;16.80;1.00;;;;;;4955290;28;20208;-66
2021/07/16 06:33:13;;;;;;;22.27;11.27;;;16.70;91.70;;;;;;4954632;28;20682;-66
2021/07/16 06:35:40;;;;;;;24.27;11.83;;;16.60;1.80;;;;;;4955029;28;20216;-65
2021/07/16 06:38:07;;;;;;;23.20;11.60;;;16.60;99.90;;;;;;4955080;28;20727;-66
2021/07/16 06:40:33;;;;;;;25.97;11.73;;;16.60;1.00;;;;;;4954705;28;20686;-65
2021/07/16 06:43:06;;;;;;;22.90;12.30;;;16.50;1.00;;;;;;4954802;28;20259;-65
2021/07/16 06:45:33;;;;;;;22.80;12.50;;;16.40;99.90;;;;;;4954523;28;20601;-65
2021/07/16 06:47:59;;;;;;;25.10;12.20;;;16.40;99.90;;;;;;4955019;28;20237;-66
2021/07/16 06:50:27;;;;;;;20.80;11.30;;;16.40;76.30;;;;;;4954718;28;20260;-65
2021/07/16 06:52:54;;;;;;;25.47;11.77;;;16.50;3.70;;;;;;4954777;28;20626;-65
2021/07/16 06:55:21;;;;;;;27.47;12.37;;;16.50;1.00;;;;;;4954278;28;20272;-67
2021/07/16 06:57:47;;;;;;;30.50;12.40;;;16.60;1.00;;;;;;5016825;23;20233;-69
2021/07/16 07:00:15;;;;;;;24.67;12.13;;;16.50;99.90;;;;;;4954507;29;20209;-66
2021/07/16 07:02:42;;;;;;;25.07;12.10;;;16.50;99.90;;;;;;4956732;28;20237;-66
2021/07/16 07:05:10;;;;;;;28.33;11.87;;;16.40;99.90;;;;;;4957670;28;20264;-67
2021/07/16 07:07:38;;;;;;;29.80;11.80;;;16.40;99.90;;;;;;4957269;28;20229;-67
2021/07/16 07:10:05;;;;;;;28.40;12.80;;;16.30;1.00;;;;;;4958053;28;20212;-66
2021/07/16 07:12:32;;;;;;;21.67;12.53;;;16.30;63.50;;;;;;4956096;28;20209;-66
2021/07/16 07:14:59;;;;;;;25.00;12.87;;;16.30;1.00;;;;;;4953941;28;20229;-66
2021/07/16 07:17:25;;;;;;;31.93;13.80;;;16.20;99.90;;;;;;4954328;28;20232;-65
2021/07/16 07:19:55;;;;;;;25.63;13.10;;;16.10;1.00;;;;;;4953695;28;20753;-67
2021/07/16 07:22:22;;;;;;;29.37;13.43;;;16.10;99.90;;;;;;4954221;28;20233;-67
2021/07/16 07:24:50;;;;;;;24.63;13.03;;;16.20;1.00;;;;;;4953851;28;20213;-66
2021/07/16 07:27:17;;;;;;;23.93;12.10;;;16.20;99.90;;;;;;4953970;28;20259;-67
2021/07/16 07:29:43;;;;;;;23.27;12.13;;;16.30;1.00;;;;;;4954391;28;20265;-66
2021/07/16 07:32:10;;;;;;;26.33;12.47;;;16.40;99.90;;;;;;4954281;28;20268;-65
2021/07/16 07:34:36;;;;;;;22.97;12.23;;;16.40;99.90;;;;;;4953880;28;20280;-64
2021/07/16 07:37:03;;;;;;;22.63;11.43;;;16.40;99.90;;;;;;4953927;28;20229;-64
2021/07/16 07:39:30;;;;;;;23.90;11.27;;;16.50;1.00;;;;;;4953862;28;20216;-65
2021/07/16 07:41:58;;;;;;;21.80;10.90;;;16.60;99.90;;;;;;4961393;28;20254;-65
2021/07/16 07:44:25;;;;;;;26.80;11.73;;;16.50;99.90;;;;;;4972784;28;20212;-64
2021/07/16 07:46:51;;;;;;;23.77;11.43;;;16.50;99.90;;;;;;4973185;28;20322;-66
2021/07/16 07:49:18;;;;;;;20.53;11.07;;;16.50;84.00;;;;;;4973271;28;20208;-67
2021/07/16 07:51:45;;;;;;;24.73;11.63;;;16.50;99.90;;;;;;4973269;28;20204;-67
2021/07/16 07:54:12;;;;;;;26.93;12.23;;;16.50;1.00;;;;;;4973054;28;20356;-67
2021/07/16 07:56:39;;;;;;;24.10;11.37;;;16.50;99.90;;;;;;4972869;28;20266;-65
2021/07/16 07:59:07;;;;;;;25.67;11.60;;;16.60;1.00;;;;;;4972852;28;20220;-65
2021/07/16 08:01:35;;;;;;;21.63;10.93;;;16.70;1.00;;;;;;4973001;28;20228;-65
2021/07/16 08:04:03;;;;;;;26.40;11.30;;;16.70;99.90;;;;;;4972743;28;20215;-68
2021/07/16 08:06:29;;;;;;;18.57;11.27;;;16.60;99.90;;;;;;4972962;28;20762;-67
2021/07/16 08:08:56;;;;;;;18.37;10.80;;;16.60;24.30;;;;;;4972668;28;20228;-67
2021/07/16 08:11:23;;;;;;;25.80;12.40;;;16.60;1.00;;;;;;4973093;28;20209;-71
2021/07/16 08:13:50;;;;;;;25.17;12.27;;;16.60;46.80;;;;;;4971766;28;20218;-66
2021/07/16 08:16:18;;;;;;;23.23;10.20;;;16.60;1.00;;;;;;4972032;28;20665;-67
2021/07/16 08:18:45;;;;;;;23.87;11.23;;;16.60;99.90;;;;;;4953273;29;20287;-65
2021/07/16 08:21:11;;;;;;;20.07;10.73;;;16.60;99.90;;;;;;4953406;28;20217;-64
2021/07/16 08:23:38;;;;;;;25.07;10.80;;;16.70;1.00;;;;;;4952979;28;20353;-64
2021/07/16 08:26:05;;;;;;;18.13;10.00;;;16.80;1.00;;;;;;4953218;29;20669;-64
2021/07/16 08:28:32;;;;;;;18.37;10.63;;;16.90;99.90;;;;;;4953537;28;20235;-64
2021/07/16 08:30:59;;;;;;;19.43;10.67;;;16.90;99.90;;;;;;4953827;28;20213;-63
2021/07/16 08:33:27;;;;;;;21.10;10.70;;;17.00;99.90;;;;;;4956920;28;20205;-64
2021/07/16 08:35:54;;;;;;;17.17;10.00;;;17.00;1.00;;;;;;4956919;28;20212;-65
2021/07/16 08:38:20;;;;;;;19.73;10.47;;;17.00;1.00;;;;;;4957634;28;20236;-68
2021/07/16 08:40:47;;;;;;;21.47;9.20;;;17.00;1.00;;;;;;4957160;28;20256;-68
2021/07/16 08:43:18;;;;;;;17.20;10.10;;;17.20;99.90;;;;;;4957421;29;20692;-67
2021/07/16 08:45:46;;;;;;;21.73;9.67;;;17.40;99.90;;;;;;4957043;29;20816;-67
2021/07/16 08:48:13;;;;;;;16.03;9.17;;;17.50;1.00;;;;;;4956889;28;20233;-67
2021/07/16 08:50:41;;;;;;;14.20;8.93;;;17.60;1.00;;;;;;4956770;28;20209;-67
2021/07/16 08:53:08;;;;;;;14.83;8.30;;;17.70;1.00;;;;;;4956961;28;20264;-65
2021/07/16 08:55:36;;;;;;;16.80;8.57;;;17.80;99.90;;;;;;4956669;28;20216;-63
2021/07/16 08:58:04;;;;;;;18.60;8.83;;;17.80;99.90;;;;;;4956629;28;20245;-62
2021/07/16 09:00:31;;;;;;;16.10;8.70;;;17.90;99.90;;;;;;4956827;28;20209;-64
2021/07/16 09:02:59;;;;;;;18.87;10.03;;;18.00;99.90;;;;;;4956873;29;20229;-63
2021/07/16 09:05:33;;;;;;;14.53;9.47;;;18.10;99.90;;;;;;4956528;28;20268;-62
2021/07/16 09:08:01;;;;;;;15.13;9.03;;;18.00;99.90;;;;;;4956544;29;20710;-66
2021/07/16 09:10:28;;;;;;;12.77;9.13;;;18.00;99.90;;;;;;4956572;29;20216;-65
2021/07/16 09:13:00;;;;;;;13.77;8.97;;;18.10;99.90;;;;;;4956666;29;20205;-62
2021/07/16 09:15:27;;;;;;;17.77;9.40;;;18.20;68.70;;;;;;4956157;28;20208;-67
2021/07/16 09:18:13;;;;;;;15.37;8.93;;;18.20;9.30;;;;;;4956202;28;20554;-64
2021/07/16 09:20:40;;;;;;;15.10;9.70;;;18.30;99.90;;;;;;4956684;28;20288;-65
2021/07/16 09:23:13;;;;;;;16.47;9.57;;;18.20;1.00;;;;;;4956305;29;20229;-67
2021/07/16 09:25:40;;;;;;;18.07;9.80;;;18.10;1.00;;;;;;4955745;28;20213;-65
2021/07/16 09:28:07;;;;;;;17.77;9.13;;;18.10;1.00;;;;;;4955966;28;20288;-63
2021/07/16 09:30:35;;;;;;;20.80;9.73;;;18.10;9.20;;;;;;4956522;28;20264;-63
2021/07/16 09:33:05;;;;;;;17.10;9.37;;;18.20;43.80;;;;;;4956271;28;20220;-65
2021/07/16 09:35:34;;;;;;;18.90;9.57;;;18.20;99.90;;;;;;4955896;28;20205;-66
2021/07/16 09:38:04;;;;;;;20.50;8.63;;;18.30;99.90;;;;;;4956113;28;20225;-65
2021/07/16 09:40:36;;;;;;;17.57;9.23;;;18.40;38.00;;;;;;4956122;28;20209;-65
2021/07/16 09:43:06;;;;;;;17.93;9.37;;;18.40;99.90;;;;;;4955039;28;20229;-65
2021/07/16 09:45:33;;;;;;;20.00;11.40;;;18.60;99.90;;;;;;4956063;28;20268;-65
2021/07/16 09:48:18;;;;;;;28.37;12.60;;;18.70;1.00;;;;;;4956168;28;20772;-63
2021/07/16 09:50:45;;;;;;;23.40;14.63;;;18.80;27.80;;;;;;4956088;28;20232;-66
2021/07/16 09:53:22;;;;;;;24.03;16.67;;;18.90;1.00;;;;;;4955715;28;20209;-66
2021/07/16 09:55:50;;;;;;;25.03;17.17;;;18.80;1.00;;;;;;4955940;28;20209;-65
2021/07/16 09:58:24;;;;;;;28.83;17.53;;;18.70;1.00;;;;;;4955654;28;20800;-63
2021/07/16 10:00:52;;;;;;;28.07;17.37;;;18.50;1.00;;;;;;4955685;28;20216;-63
2021/07/16 10:03:20;;;;;;;27.83;15.60;;;18.50;1.00;;;;;;4955537;28;20224;-64
2021/07/16 10:05:49;;;;;;;25.87;14.63;;;18.50;7.20;;;;;;4955286;28;20280;-62
2021/07/16 10:08:18;;;;;;;26.33;15.17;;;18.40;17.10;;;;;;4955440;28;20229;-63
2021/07/16 10:10:46;;;;;;;28.27;14.83;;;18.50;32.60;;;;;;4955691;28;20233;-62
2021/07/16 10:13:14;;;;;;;22.27;14.30;;;18.40;9.50;;;;;;4955709;28;20296;-65
2021/07/16 10:15:42;;;;;;;20.67;11.83;;;18.60;10.20;;;;;;4955986;28;20236;-67
2021/07/16 10:18:10;;;;;;;22.53;12.10;;;18.70;1.00;;;;;;4956511;28;20265;-67
2021/07/16 10:20:37;;;;;;;19.83;13.47;;;19.00;1.00;;;;;;4958099;28;20213;-69
2021/07/16 10:23:05;;;;;;;21.10;12.70;;;19.10;1.00;;;;;;4956354;28;20233;-62
2021/07/16 10:25:32;;;;;;;24.27;13.50;;;19.30;1.00;;;;;;4955576;28;20470;-65
2021/07/16 10:27:59;;;;;;;23.57;13.67;;;19.50;1.00;;;;;;4956735;28;20874;-62
2021/07/16 10:30:40;;;;;;;23.60;14.67;;;19.60;1.00;;;;;;4955990;28;20209;-62
2021/07/16 10:33:07;;;;;;;24.20;16.53;;;19.70;1.00;;;;;;4955593;28;20255;-62
2021/07/16 10:35:38;;;;;;;26.77;16.87;;;19.40;1.00;;;;;;4954931;28;20264;-62
2021/07/16 10:38:25;;;;;;;24.43;16.83;;;19.40;1.00;;;;;;4955129;28;20284;-66
2021/07/16 10:40:53;;;;;;;23.20;14.37;;;19.50;1.00;;;;;;4954699;28;20216;-69
2021/07/16 10:43:41;;;;;;;22.37;12.80;;;19.60;1.00;;;;;;4954608;28;20228;-68
2021/07/16 10:46:30;;;;;;;24.53;12.43;;;19.80;1.00;;;;;;4955072;28;20248;-69
2021/07/16 10:48:57;;;;;;;22.57;14.07;;;19.80;1.00;;;;;;5110032;23;20791;-69
2021/07/16 10:51:26;;;;;;;24.93;11.57;;;19.60;99.90;;;;;;4973859;28;20561;-68
2021/07/16 10:53:53;;;;;;;23.67;12.90;;;19.50;1.00;;;;;;4974011;28;20259;-66
2021/07/16 10:59:01;;;;;;;22.87;13.00;;;19.40;1.00;;;;;;5459163;23;20263;-67
2021/07/16 11:01:34;;;;;;;23.73;13.00;;;19.50;1.00;;;;;;4954563;28;20209;-67
2021/07/16 11:04:02;;;;;;;18.20;11.83;;;19.60;1.00;;;;;;4954090;28;20728;-67
2021/07/16 11:09:01;;;;;;;22.37;13.03;;;19.80;1.00;;;;;;4974921;23;20245;-67
2021/07/16 11:11:38;;;;;;;21.87;13.60;;;19.90;1.00;;;;;;4954495;28;20221;-67
2021/07/16 11:14:06;;;;;;;23.90;12.63;;;19.80;1.00;;;;;;4953995;28;20204;-66
2021/07/16 11:16:43;;;;;;;17.93;11.43;;;19.80;1.00;;;;;;4954215;28;20217;-68
2021/07/16 11:19:26;;;;;;;19.33;11.97;;;19.90;1.00;;;;;;4954441;28;20737;-66
2021/07/16 11:22:06;;;;;;;18.47;11.43;;;20.00;1.00;;;;;;4954358;28;20660;-68
2021/07/16 11:24:34;;;;;;;20.97;12.17;;;20.10;99.90;;;;;;4954327;28;20193;-66
2021/07/16 11:27:06;;;;;;;21.00;14.20;;;19.90;99.90;;;;;;4953948;28;20295;-67
2021/07/16 11:29:35;;;;;;;22.63;14.70;;;20.10;99.90;;;;;;4954306;28;20636;-67
2021/07/16 11:32:07;;;;;;;21.37;12.43;;;20.20;99.90;;;;;;4954187;28;20622;-67
2021/07/16 11:34:36;;;;;;;21.33;11.43;;;20.30;99.90;;;;;;4953676;28;20205;-65
2021/07/16 11:37:04;;;;;;;19.97;11.77;;;20.40;99.90;;;;;;4958844;28;20237;-66
2021/07/16 11:39:32;;;;;;;24.33;12.17;;;20.40;99.90;;;;;;4956593;28;20266;-67
2021/07/16 11:41:59;;;;;;;17.70;12.70;;;20.60;99.90;;;;;;4957926;28;20209;-66
2021/07/16 11:44:29;;;;;;;21.43;12.87;;;20.70;99.90;;;;;;4958810;28;20299;-66
2021/07/16 11:46:56;;;;;;;17.23;12.63;;;20.70;99.90;;;;;;4941840;29;20253;-67
2021/07/16 11:49:25;;;;;;;15.57;10.00;;;20.60;99.90;;;;;;4942616;29;20247;-66
2021/07/16 11:51:58;;;;;;;22.60;10.83;;;20.40;99.90;;;;;;4953533;28;20585;-67
2021/07/16 11:54:26;;;;;;;25.63;14.93;;;20.30;99.90;;;;;;4953626;28;20296;-68
2021/07/16 11:56:56;;;;;;;25.87;16.83;;;19.70;99.90;;;;;;4953712;28;20232;-67
2021/07/16 11:59:23;;;;;;;27.00;18.67;;;19.30;99.90;;;;;;4956677;29;20213;-66
2021/07/16 12:04:44;;;;;;;27.73;15.93;;;19.30;99.90;;;;;;5093519;28;20599;-64
2021/07/16 12:07:11;;;;;;;26.27;14.50;;;19.20;99.90;;;;;;5093109;28;20228;-67
2021/07/16 12:09:41;;;;;;;26.67;16.00;;;19.20;99.90;;;;;;5089300;28;20560;-66
2021/07/16 12:12:10;;;;;;;21.43;14.03;;;19.30;99.90;;;;;;5089009;28;20212;-63
2021/07/16 12:14:53;;;;;;;18.10;11.00;;;19.30;99.90;;;;;;5088467;28;20257;-65
2021/07/16 12:19:50;;;;;;;26.20;13.60;;;19.50;99.90;;;;;;5047224;28;20225;-64
2021/07/16 12:22:20;;;;;;;29.60;12.80;;;19.50;99.90;;;;;;5048778;28;20749;-68
2021/07/16 12:24:47;;;;;;;26.90;13.80;;;19.40;99.90;;;;;;5049984;28;20190;-65
2021/07/16 12:27:16;;;;;;;24.37;12.40;;;19.30;99.90;;;;;;5050092;28;20229;-64
2021/07/16 12:29:44;;;;;;;27.33;13.67;;;19.10;99.90;;;;;;5048627;28;20271;-66
2021/07/16 12:32:11;;;;;;;25.90;12.97;;;19.10;1.00;;;;;;5048396;28;20209;-65
2021/07/16 12:34:44;;;;;;;26.33;13.13;;;19.20;1.00;;;;;;5048134;28;20202;-67
2021/07/16 12:37:14;;;;;;;27.03;13.33;;;19.20;99.90;;;;;;5048120;28;20221;-65
2021/07/16 12:39:44;;;;;;;28.53;10.87;;;19.40;1.00;;;;;;5048342;28;20312;-66
2021/07/16 12:42:12;;;;;;;25.30;12.57;;;19.60;99.90;;;;;;5048446;28;20629;-65
2021/07/16 12:44:40;;;;;;;19.83;10.00;;;19.60;99.90;;;;;;5047727;28;20225;-65
2021/07/16 12:47:06;;;;;;;20.23;9.53;;;19.70;99.90;;;;;;5048022;28;20725;-65
2021/07/16 12:49:33;;;;;;;21.63;9.67;;;19.70;99.90;;;;;;5047939;28;20210;-65